createdAt,value
2023-02-11T00:01:26.246Z,74.02
2023-02-11T00:03:53.859Z,74.19
2023-02-11T00:06:21.087Z,74.07
2023-02-11T00:08:48.314Z,74.14
2023-02-11T00:11:18.219Z,73.80
2023-02-11T00:13:46.148Z,73.77
2023-02-11T00:16:17.723Z,73.89
2023-02-11T00:18:45.203Z,73.77
2023-02-11T00:21:15.862Z,73.98
2023-02-11T00:23:43.538Z,74.42
2023-02-11T00:26:19.515Z,74.63
2023-02-11T00:28:50.955Z,74.70
2023-02-11T00:31:19.638Z,74.27
2023-02-11T00:33:52.431Z,73.94
2023-02-11T00:36:27.500Z,73.91
2023-02-11T00:38:58.159Z,74.89
2023-02-11T00:41:26.210Z,74.22
2023-02-11T00:43:55.683Z,74.43
2023-02-11T00:46:23.138Z,74.45
2023-02-11T00:48:53.315Z,74.05
2023-02-11T00:51:26.801Z,73.82
2023-02-11T00:53:55.370Z,73.88
2023-02-11T00:56:23.735Z,73.87
2023-02-11T00:58:50.948Z,73.87
2023-02-11T01:01:18.201Z,73.85
2023-02-11T01:03:47.782Z,73.94
2023-02-11T01:06:17.392Z,74.24
2023-02-11T01:08:47.198Z,74.08
2023-02-11T01:11:39.088Z,74.66
2023-02-11T01:14:09.110Z,74.61
2023-02-11T01:16:36.365Z,73.94
2023-02-11T01:19:07.656Z,73.91
2023-02-11T01:21:34.911Z,74.15
2023-02-11T01:24:02.114Z,74.24
2023-02-11T01:26:29.315Z,74.31
2023-02-11T01:29:01.191Z,74.31
2023-02-11T01:31:30.285Z,75.14
2023-02-11T01:33:58.425Z,75.28
2023-02-11T01:36:26.820Z,74.73
2023-02-11T01:38:56.862Z,74.22
2023-02-11T01:41:24.119Z,74.07
2023-02-11T01:43:51.328Z,74.11
2023-02-11T01:46:18.568Z,74.04
2023-02-11T01:48:51.767Z,74.03
2023-02-11T01:51:26.867Z,74.69
2023-02-11T01:54:15.744Z,75.64
2023-02-11T01:57:07.497Z,74.39
2023-02-11T01:59:59.913Z,74.18
2023-02-11T02:02:51.616Z,74.28
2023-02-11T02:05:35.326Z,74.73
2023-02-11T02:08:14.503Z,74.93
2023-02-11T02:10:45.816Z,75.06
2023-02-11T02:13:39.013Z,75.28
2023-02-11T02:16:14.789Z,75.18
2023-02-11T02:19:00.169Z,75.75
2023-02-11T02:21:50.432Z,75.56
2023-02-11T02:24:47.823Z,74.92
2023-02-11T02:27:33.465Z,75.08
2023-02-11T02:30:09.427Z,75.11
2023-02-11T02:33:21.932Z,74.79
2023-02-11T02:36:13.308Z,75.02
2023-02-11T02:39:06.306Z,74.85
2023-02-11T02:41:35.808Z,74.70
2023-02-11T02:44:03.614Z,74.30
2023-02-11T02:46:34.876Z,73.98
2023-02-11T02:49:02.224Z,74.26
2023-02-11T02:51:47.676Z,74.60
2023-02-11T02:54:36.974Z,75.11
2023-02-11T02:57:39.831Z,74.62
2023-02-11T03:00:34.990Z,74.41
2023-02-11T03:03:26.807Z,74.46
2023-02-11T03:06:15.476Z,74.96
2023-02-11T03:08:47.292Z,74.60
2023-02-11T03:11:19.204Z,75.19
2023-02-11T03:13:49.591Z,74.72
2023-02-11T03:16:28.427Z,74.56
2023-02-11T03:19:03.841Z,74.66
2023-02-11T03:21:35.555Z,75.13
2023-02-11T03:24:07.742Z,75.74
2023-02-11T03:26:38.596Z,75.09
2023-02-11T03:29:43.324Z,76.16
2023-02-11T03:32:38.830Z,76.14
2023-02-11T03:35:19.994Z,75.49
2023-02-11T03:38:20.748Z,74.81
2023-02-11T03:40:48.863Z,76.35
2023-02-11T03:43:22.854Z,75.39
2023-02-11T03:45:52.575Z,75.23
2023-02-11T03:48:31.530Z,75.82
2023-02-11T03:51:01.539Z,76.15
2023-02-11T03:53:31.010Z,76.30
2023-02-11T03:56:02.799Z,77.13
2023-02-11T03:58:30.656Z,79.01
2023-02-11T04:00:57.886Z,77.28
2023-02-11T04:03:25.228Z,75.75
2023-02-11T04:05:52.586Z,75.29
2023-02-11T04:08:20.491Z,75.49
2023-02-11T04:10:49.874Z,76.22
2023-02-11T04:13:19.576Z,75.15
2023-02-11T04:15:48.816Z,75.27
2023-02-11T04:18:16.301Z,75.33
2023-02-11T04:20:45.652Z,75.37
2023-02-11T04:23:12.848Z,75.31
2023-02-11T04:25:40.039Z,75.74
2023-02-11T04:28:07.270Z,75.64
2023-02-11T04:30:36.678Z,75.52
2023-02-11T04:33:03.963Z,75.30
2023-02-11T04:35:33.658Z,75.51
2023-02-11T04:38:00.905Z,75.43
2023-02-11T04:40:28.107Z,75.54
2023-02-11T04:42:56.083Z,75.76
2023-02-11T04:45:23.686Z,75.21
2023-02-11T04:47:51.114Z,75.59
2023-02-11T04:50:18.386Z,76.16
2023-02-11T04:52:47.861Z,75.91
2023-02-11T04:55:17.481Z,76.12
2023-02-11T04:57:44.639Z,76.57
2023-02-11T05:00:14.687Z,76.57
2023-02-11T05:02:44.151Z,76.54
2023-02-11T05:05:11.269Z,76.38
2023-02-11T05:07:41.127Z,75.89
2023-02-11T05:10:08.661Z,76.13
2023-02-11T05:12:38.379Z,76.22
2023-02-11T05:15:12.392Z,76.85
2023-02-11T05:17:39.592Z,76.80
2023-02-11T05:20:07.215Z,76.75
2023-02-11T05:22:34.424Z,77.44
2023-02-11T05:25:01.545Z,78.10
2023-02-11T05:27:28.709Z,78.47
2023-02-11T05:29:58.278Z,78.55
2023-02-11T05:32:28.541Z,78.34
2023-02-11T05:34:57.779Z,78.03
2023-02-11T05:37:27.120Z,77.69
2023-02-11T05:39:54.297Z,77.73
2023-02-11T05:42:21.492Z,77.89
2023-02-11T05:44:50.619Z,77.41
2023-02-11T05:47:17.951Z,77.75
2023-02-11T05:49:47.395Z,77.35
2023-02-11T05:52:14.611Z,77.31
2023-02-11T05:54:41.844Z,77.34
2023-02-11T05:57:09.054Z,77.09
2023-02-11T05:59:36.229Z,77.52
2023-02-11T06:02:03.426Z,77.74
2023-02-11T06:04:33.717Z,76.93
2023-02-11T06:07:04.087Z,76.44
2023-02-11T06:09:31.306Z,76.01
2023-02-11T06:11:58.488Z,75.19
2023-02-11T06:14:27.856Z,76.68
2023-02-11T06:16:55.019Z,75.19
2023-02-11T06:19:26.953Z,75.89
2023-02-11T06:21:55.622Z,75.57
2023-02-11T06:24:54.673Z,76.28
2023-02-11T06:27:15.760Z,76.35
2023-02-11T06:29:45.233Z,75.49
2023-02-11T06:32:36.949Z,75.87
2023-02-11T06:35:02.096Z,75.88
2023-02-11T06:37:29.248Z,75.78
2023-02-11T06:39:56.403Z,76.79
2023-02-11T06:42:23.539Z,76.21
2023-02-11T06:44:50.721Z,76.96
2023-02-11T06:47:17.902Z,76.44
2023-02-11T06:49:45.892Z,77.01
2023-02-11T06:52:13.038Z,76.56
2023-02-11T06:54:40.219Z,76.19
2023-02-11T06:57:09.739Z,76.77
2023-02-11T06:59:36.971Z,76.52
2023-02-11T07:02:04.270Z,75.83
2023-02-11T07:04:31.526Z,75.42
2023-02-11T07:07:03.312Z,75.82
2023-02-11T07:09:32.857Z,75.40
2023-02-11T07:12:00.094Z,76.02
2023-02-11T07:14:27.318Z,76.12
2023-02-11T07:16:54.530Z,76.24
2023-02-11T07:19:21.733Z,75.70
2023-02-11T07:21:48.902Z,75.49
2023-02-11T07:24:16.202Z,75.00
2023-02-11T07:26:43.431Z,74.81
2023-02-11T07:29:10.606Z,75.02
2023-02-11T07:31:40.154Z,74.52
2023-02-11T07:34:07.514Z,74.56
2023-02-11T07:36:37.693Z,74.59
2023-02-11T07:39:07.252Z,74.11
2023-02-11T07:41:37.985Z,74.04
2023-02-11T07:44:05.792Z,74.12
2023-02-11T07:46:34.639Z,73.93
2023-02-11T07:49:01.990Z,74.03
2023-02-11T07:51:32.510Z,73.84
2023-02-11T07:54:00.334Z,73.11
2023-02-11T07:56:30.245Z,73.00
2023-02-11T07:59:02.213Z,72.66
2023-02-11T08:01:30.775Z,72.41
2023-02-11T08:03:59.825Z,72.32
2023-02-11T08:06:30.950Z,71.70
2023-02-11T08:08:58.832Z,71.58
2023-02-11T08:11:29.050Z,71.35
2023-02-11T08:13:58.830Z,70.81
2023-02-11T08:16:28.767Z,70.80
2023-02-11T08:18:58.112Z,70.58
2023-02-11T08:21:26.025Z,70.58
2023-02-11T08:23:57.844Z,70.67
2023-02-11T08:26:29.644Z,70.24
2023-02-11T08:29:00.296Z,70.26
2023-02-11T08:31:30.467Z,70.97
2023-02-11T08:34:02.342Z,71.27
2023-02-11T08:36:34.850Z,71.10
2023-02-11T08:39:18.072Z,71.14
2023-02-11T08:41:49.020Z,70.73
2023-02-11T08:44:17.528Z,70.59
2023-02-11T08:46:47.223Z,70.13
2023-02-11T08:49:15.398Z,69.86
2023-02-11T08:51:42.958Z,69.28
2023-02-11T08:54:10.401Z,69.65
2023-02-11T08:56:38.860Z,69.22
2023-02-11T08:59:10.883Z,69.45
2023-02-11T09:01:38.235Z,69.51
2023-02-11T09:04:09.541Z,68.81
2023-02-11T09:06:36.753Z,68.56
2023-02-11T09:09:06.857Z,68.69
2023-02-11T09:11:35.408Z,68.59
2023-02-11T09:14:04.723Z,68.02
2023-02-11T09:16:36.851Z,67.48
2023-02-11T09:19:05.184Z,66.56
2023-02-11T09:21:32.627Z,66.78
2023-02-11T09:24:02.134Z,66.50
2023-02-11T09:26:33.283Z,66.40
2023-02-11T09:29:01.759Z,65.09
2023-02-11T09:31:32.407Z,63.85
2023-02-11T09:34:02.559Z,62.47
2023-02-11T09:36:33.440Z,61.42
2023-02-11T09:39:02.199Z,61.56
2023-02-11T09:41:35.385Z,60.90
2023-02-11T09:44:05.326Z,61.36
2023-02-11T09:46:36.471Z,61.44
2023-02-11T09:49:08.277Z,60.95
2023-02-11T09:51:43.985Z,60.24
2023-02-11T09:54:23.397Z,61.25
2023-02-11T09:56:50.613Z,61.21
2023-02-11T09:59:18.635Z,61.15
2023-02-11T10:02:14.529Z,61.10
2023-02-11T10:05:20.814Z,61.13
2023-02-11T10:08:32.747Z,60.59
2023-02-11T10:11:30.997Z,59.39
2023-02-11T10:14:10.023Z,58.70
2023-02-11T10:16:56.018Z,58.54
2023-02-11T10:19:34.095Z,58.31
2023-02-11T10:22:22.382Z,58.37
2023-02-11T10:24:58.421Z,58.18
2023-02-11T10:27:33.861Z,57.86
2023-02-11T10:30:19.255Z,57.51
2023-02-11T10:33:13.981Z,56.51
2023-02-11T10:35:44.029Z,56.14
2023-02-11T10:38:12.351Z,56.35
2023-02-11T10:40:40.358Z,56.32
2023-02-11T10:43:13.758Z,54.98
2023-02-11T10:45:52.462Z,54.93
2023-02-11T10:48:50.561Z,54.32
2023-02-11T10:51:34.122Z,52.83
2023-02-11T10:54:04.026Z,52.28
2023-02-11T10:56:34.343Z,51.57
2023-02-11T10:59:27.363Z,50.89
2023-02-11T11:01:56.922Z,50.87
2023-02-11T11:04:35.504Z,50.09
2023-02-11T11:07:16.957Z,50.29
2023-02-11T11:09:46.828Z,49.11
2023-02-11T11:12:42.104Z,48.89
2023-02-11T11:15:22.147Z,46.95
2023-02-11T11:17:51.076Z,45.29
2023-02-11T11:20:30.437Z,45.35
2023-02-11T11:23:18.584Z,45.39
2023-02-11T11:26:03.968Z,45.07
2023-02-11T11:28:39.009Z,44.57
2023-02-11T11:31:14.329Z,44.49
2023-02-11T11:33:44.668Z,44.15
2023-02-11T11:36:21.486Z,44.59
2023-02-11T11:38:56.658Z,45.63
2023-02-11T11:41:30.646Z,45.00
2023-02-11T11:44:03.864Z,45.29
2023-02-11T11:46:36.857Z,45.56
2023-02-11T11:49:28.346Z,44.93
2023-02-11T11:52:20.708Z,45.63
2023-02-11T11:54:58.636Z,46.28
2023-02-11T11:57:31.374Z,45.93
2023-02-11T12:00:01.958Z,46.13
2023-02-11T12:03:31.463Z,46.33
2023-02-11T12:06:13.912Z,46.51
2023-02-11T12:09:08.805Z,45.28
2023-02-11T12:12:06.368Z,45.46
2023-02-11T12:14:58.224Z,45.29
2023-02-11T12:17:46.405Z,45.25
2023-02-11T12:20:23.789Z,45.37
2023-02-11T12:23:03.602Z,44.81
2023-02-11T12:25:49.438Z,45.00
2023-02-11T12:28:49.862Z,44.58
2023-02-11T12:31:44.269Z,45.05
2023-02-11T12:34:32.757Z,44.42
2023-02-11T12:37:17.918Z,44.67
2023-02-11T12:39:56.990Z,44.57
2023-02-11T12:42:54.859Z,44.50
2023-02-11T12:45:29.421Z,44.71
2023-02-11T12:48:18.318Z,45.09
2023-02-11T12:50:45.477Z,45.77
2023-02-11T12:53:59.495Z,44.79
2023-02-11T12:56:40.620Z,44.80
2023-02-11T12:59:17.318Z,45.20
2023-02-11T13:01:45.108Z,44.87
2023-02-11T13:04:18.680Z,44.85
2023-02-11T13:06:52.247Z,45.03
2023-02-11T13:09:33.513Z,44.70
2023-02-11T13:12:24.984Z,45.26
2023-02-11T13:14:56.713Z,44.99
2023-02-11T13:17:57.016Z,44.51
2023-02-11T13:21:05.272Z,44.52
2023-02-11T13:23:51.629Z,44.54
2023-02-11T13:26:29.838Z,44.93
2023-02-11T13:29:29.191Z,45.53
2023-02-11T13:32:07.925Z,45.75
2023-02-11T13:34:44.048Z,45.73
2023-02-11T13:37:36.357Z,45.31
2023-02-11T13:40:19.347Z,45.37
2023-02-11T13:42:58.524Z,45.45
2023-02-11T13:45:36.128Z,45.34
2023-02-11T13:48:20.023Z,45.49
2023-02-11T13:50:51.096Z,45.62
2023-02-11T13:53:19.255Z,46.12
2023-02-11T13:55:51.353Z,46.56
2023-02-11T13:58:37.175Z,46.25
2023-02-11T14:01:07.460Z,46.02
2023-02-11T14:03:57.160Z,46.26
2023-02-11T14:07:06.602Z,46.29
2023-02-11T14:09:37.134Z,46.40
2023-02-11T14:12:23.902Z,46.78
2023-02-11T14:15:07.985Z,47.55
2023-02-11T14:17:37.694Z,47.39
2023-02-11T14:20:51.400Z,47.56
2023-02-11T14:23:25.724Z,47.90
2023-02-11T14:26:05.055Z,48.42
2023-02-11T14:28:35.668Z,48.51
2023-02-11T14:31:21.110Z,48.64
2023-02-11T14:34:03.430Z,48.24
2023-02-11T14:36:55.753Z,48.21
2023-02-11T14:39:35.383Z,48.49
2023-02-11T14:42:03.394Z,48.62
2023-02-11T14:44:33.466Z,48.26
2023-02-11T14:47:03.128Z,47.85
2023-02-11T14:49:36.742Z,47.98
2023-02-11T14:52:19.733Z,48.10
2023-02-11T14:54:50.230Z,48.34
2023-02-11T14:57:19.527Z,48.43
2023-02-11T15:00:02.588Z,48.51
2023-02-11T15:02:34.772Z,48.39
2023-02-11T15:05:21.165Z,48.74
2023-02-11T15:08:01.156Z,48.89
2023-02-11T15:10:44.806Z,48.75
2023-02-11T15:13:20.173Z,48.97
2023-02-11T15:15:50.207Z,49.19
2023-02-11T15:18:24.280Z,49.22
2023-02-11T15:20:52.594Z,49.07
2023-02-11T15:23:24.611Z,48.88
2023-02-11T15:25:55.883Z,49.07
2023-02-11T15:28:24.755Z,49.23
2023-02-11T15:31:00.897Z,48.99
2023-02-11T15:33:32.270Z,49.21
2023-02-11T15:36:03.572Z,49.32
2023-02-11T15:38:31.334Z,49.36
2023-02-11T15:41:07.424Z,49.72
2023-02-11T15:43:48.523Z,50.09
2023-02-11T15:46:22.029Z,50.54
2023-02-11T15:48:51.797Z,50.77
2023-02-11T15:51:28.702Z,51.04
2023-02-11T15:53:59.999Z,51.21
2023-02-11T15:56:33.321Z,51.24
2023-02-11T15:59:19.782Z,51.41
2023-02-11T16:01:50.066Z,51.50
2023-02-11T16:04:20.300Z,51.88
2023-02-11T16:06:51.154Z,52.09
2023-02-11T16:09:32.651Z,52.38
2023-02-11T16:12:29.364Z,52.27
2023-02-11T16:14:59.788Z,52.52
2023-02-11T16:17:29.752Z,52.90
2023-02-11T16:19:57.019Z,52.95
2023-02-11T16:22:30.277Z,53.34
2023-02-11T16:25:01.297Z,53.20
2023-02-11T16:27:40.037Z,54.04
2023-02-11T16:30:43.223Z,53.77
2023-02-11T16:33:13.829Z,53.97
2023-02-11T16:35:41.049Z,53.80
2023-02-11T16:38:08.219Z,53.98
2023-02-11T16:40:37.522Z,54.29
2023-02-11T16:43:04.697Z,54.20
2023-02-11T16:45:37.539Z,54.49
2023-02-11T16:48:09.273Z,54.82
2023-02-11T16:50:36.507Z,54.86
2023-02-11T16:53:07.185Z,55.02
2023-02-11T16:55:35.159Z,55.43
2023-02-11T16:58:02.411Z,55.09
2023-02-11T17:00:32.289Z,55.21
2023-02-11T17:03:04.679Z,54.86
2023-02-11T17:05:37.851Z,54.90
2023-02-11T17:08:11.606Z,55.17
2023-02-11T17:10:41.271Z,55.20
2023-02-11T17:13:08.678Z,55.56
2023-02-11T17:15:35.950Z,55.78
2023-02-11T17:18:05.508Z,55.60
2023-02-11T17:20:32.656Z,55.88
2023-02-11T17:23:02.315Z,55.78
2023-02-11T17:25:29.503Z,56.02
2023-02-11T17:27:56.750Z,56.14
2023-02-11T17:30:26.447Z,56.44
2023-02-11T17:32:53.644Z,56.51
2023-02-11T17:35:20.854Z,56.76
2023-02-11T17:37:48.011Z,57.04
2023-02-11T17:40:18.255Z,56.90
2023-02-11T17:42:45.563Z,57.13
2023-02-11T17:45:13.801Z,57.45
2023-02-11T17:47:41.034Z,57.51
2023-02-11T17:50:08.714Z,57.47
2023-02-11T17:52:38.134Z,57.24
2023-02-11T17:55:06.266Z,57.04
2023-02-11T17:57:35.735Z,57.09
2023-02-11T18:00:10.554Z,57.28
2023-02-11T18:02:42.799Z,57.39
2023-02-11T18:05:10.358Z,57.19
2023-02-11T18:07:37.637Z,57.22
2023-02-11T18:10:07.317Z,57.35
2023-02-11T18:12:36.823Z,57.36
2023-02-11T18:15:06.624Z,57.46
2023-02-11T18:17:35.902Z,57.34
2023-02-11T18:20:05.969Z,57.62
2023-02-11T18:22:39.360Z,57.53
2023-02-11T18:25:07.740Z,57.93
2023-02-11T18:27:35.000Z,58.26
2023-02-11T18:30:02.197Z,58.33
2023-02-11T18:32:34.055Z,58.50
2023-02-11T18:35:01.271Z,58.98
2023-02-11T18:37:33.022Z,59.10
2023-02-11T18:40:00.281Z,58.88
2023-02-11T18:42:46.816Z,59.08
2023-02-11T18:45:16.282Z,59.33
2023-02-11T18:47:45.927Z,58.38
2023-02-11T18:50:15.617Z,58.76
2023-02-11T18:52:42.941Z,58.66
2023-02-11T18:55:10.146Z,58.43
2023-02-11T18:57:37.318Z,58.61
2023-02-11T19:00:06.296Z,58.55
2023-02-11T19:02:33.453Z,58.59
2023-02-11T19:05:08.423Z,58.61
2023-02-11T19:07:35.960Z,58.65
2023-02-11T19:10:04.826Z,58.78
2023-02-11T19:12:33.188Z,58.97
2023-02-11T19:15:02.651Z,59.14
2023-02-11T19:17:29.832Z,59.17
2023-02-11T19:19:56.992Z,59.75
2023-02-11T19:22:24.352Z,59.64
2023-02-11T19:24:54.726Z,59.46
2023-02-11T19:27:21.974Z,59.74
2023-02-11T19:29:54.070Z,59.98
2023-02-11T19:32:21.319Z,60.33
2023-02-11T19:34:51.747Z,59.55
2023-02-11T19:37:19.209Z,59.24
2023-02-11T19:39:46.343Z,59.17
2023-02-11T19:42:13.683Z,58.51
2023-02-11T19:44:40.869Z,58.67
2023-02-11T19:47:10.260Z,58.45
2023-02-11T19:49:37.422Z,58.23
2023-02-11T19:52:07.738Z,58.12
2023-02-11T19:54:34.998Z,58.34
2023-02-11T19:57:04.275Z,58.68
2023-02-11T19:59:31.750Z,58.61
2023-02-11T20:01:58.871Z,58.15
2023-02-11T20:04:32.024Z,57.96
2023-02-11T20:06:59.239Z,57.68
2023-02-11T20:09:29.105Z,57.92
2023-02-11T20:11:59.931Z,57.78
2023-02-11T20:14:29.474Z,57.70
2023-02-11T20:16:56.600Z,57.61
2023-02-11T20:19:23.846Z,57.71
2023-02-11T20:21:53.690Z,57.64
2023-02-11T20:24:21.608Z,57.67
2023-02-11T20:26:49.561Z,57.81
2023-02-11T20:29:17.934Z,57.77
2023-02-11T20:31:45.389Z,58.04
2023-02-11T20:34:17.638Z,57.53
2023-02-11T20:36:51.712Z,57.73
2023-02-11T20:39:22.331Z,57.42
2023-02-11T20:41:50.645Z,57.62
2023-02-11T20:44:17.951Z,57.73
2023-02-11T20:46:46.736Z,57.79
2023-02-11T20:49:18.959Z,57.58
2023-02-11T20:51:46.319Z,57.02
2023-02-11T20:54:16.125Z,57.11
2023-02-11T20:56:51.120Z,57.37
2023-02-11T20:59:18.864Z,57.29
2023-02-11T21:01:49.154Z,57.60
2023-02-11T21:04:19.674Z,56.96
2023-02-11T21:06:53.000Z,57.33
2023-02-11T21:09:23.126Z,57.22
2023-02-11T21:11:53.924Z,57.55
2023-02-11T21:14:22.868Z,57.01
2023-02-11T21:16:50.617Z,57.35
2023-02-11T21:19:20.392Z,57.34
2023-02-11T21:21:47.795Z,57.44
2023-02-11T21:24:17.563Z,57.40
2023-02-11T21:26:44.760Z,57.88
2023-02-11T21:29:14.297Z,57.58
2023-02-11T21:31:41.693Z,57.64
2023-02-11T21:34:10.049Z,57.97
2023-02-11T21:36:37.329Z,57.90
2023-02-11T21:39:06.989Z,58.07
2023-02-11T21:41:34.929Z,58.15
2023-02-11T21:44:02.197Z,58.04
2023-02-11T21:46:32.509Z,57.79
2023-02-11T21:49:01.789Z,58.00
2023-02-11T21:51:29.211Z,57.99
2023-02-11T21:53:59.224Z,57.57
2023-02-11T21:56:28.175Z,57.68
2023-02-11T21:58:58.197Z,56.90
2023-02-11T22:01:27.956Z,56.29
2023-02-11T22:03:55.543Z,55.93
2023-02-11T22:06:30.709Z,55.05
2023-02-11T22:08:58.905Z,54.76
2023-02-11T22:11:26.042Z,54.27
2023-02-11T22:13:56.405Z,54.33
2023-02-11T22:16:25.016Z,54.05
2023-02-11T22:18:55.979Z,54.16
2023-02-11T22:21:23.212Z,54.27
2023-02-11T22:23:54.049Z,54.43
2023-02-11T22:26:23.680Z,54.58
2023-02-11T22:28:53.906Z,54.36
2023-02-11T22:31:30.424Z,54.68
2023-02-11T22:34:25.706Z,55.18
2023-02-11T22:36:54.948Z,54.82
2023-02-11T22:39:22.127Z,55.44
2023-02-11T22:41:51.610Z,55.97
2023-02-11T22:44:20.129Z,56.66
2023-02-11T22:46:47.404Z,56.39
2023-02-11T22:49:16.399Z,56.86
2023-02-11T22:51:44.249Z,56.75
2023-02-11T22:54:17.697Z,56.80
2023-02-11T22:56:45.700Z,57.00
2023-02-11T22:59:17.662Z,57.27
2023-02-11T23:01:45.406Z,56.93
2023-02-11T23:04:14.738Z,56.85
2023-02-11T23:06:42.030Z,56.90
2023-02-11T23:09:12.404Z,57.02
2023-02-11T23:11:41.219Z,56.72
2023-02-11T23:14:10.129Z,57.34
2023-02-11T23:16:37.768Z,57.73
2023-02-11T23:19:08.486Z,57.60
2023-02-11T23:21:38.357Z,57.76
2023-02-11T23:24:10.597Z,58.03
2023-02-11T23:26:41.467Z,58.02
2023-02-11T23:29:11.310Z,58.29
2023-02-11T23:31:43.057Z,58.43
2023-02-11T23:34:12.903Z,58.61
2023-02-11T23:37:05.131Z,59.08
2023-02-11T23:39:32.300Z,59.14
2023-02-11T23:41:59.610Z,59.04
2023-02-11T23:44:27.216Z,59.54
2023-02-11T23:46:54.396Z,59.93
2023-02-11T23:49:26.280Z,60.00
2023-02-11T23:51:53.476Z,60.10
2023-02-11T23:54:20.710Z,60.46
2023-02-11T23:56:50.099Z,60.98
2023-02-11T23:59:19.585Z,61.03
